createdAt,value
2019-02-16T00:00:58.153Z,23.73
2019-02-16T00:03:29.411Z,24.20
2019-02-16T00:05:58.205Z,23.13
2019-02-16T00:08:28.645Z,25.43
2019-02-16T00:10:59.248Z,24.77
2019-02-16T00:13:28.232Z,23.57
2019-02-16T00:15:56.853Z,23.80
2019-02-16T00:18:25.636Z,22.33
2019-02-16T00:21:03.447Z,24.13
2019-02-16T00:23:24.857Z,21.47
2019-02-16T00:25:53.474Z,21.87
2019-02-16T00:28:22.244Z,24.30
2019-02-16T00:30:51.277Z,21.23
2019-02-16T00:33:24.361Z,27.47
2019-02-16T00:35:55.961Z,25.50
2019-02-16T00:38:24.858Z,25.93
2019-02-16T00:40:53.529Z,26.03
2019-02-16T00:43:23.034Z,26.47
2019-02-16T00:45:53.027Z,23.87
2019-02-16T00:48:24.550Z,24.13
2019-02-16T00:50:55.971Z,25.20
2019-02-16T00:53:27.976Z,22.73
2019-02-16T00:56:00.954Z,22.70
2019-02-16T00:58:29.898Z,24.27
2019-02-16T01:00:58.447Z,23.30
2019-02-16T01:03:28.267Z,22.40
2019-02-16T01:05:58.012Z,22.80
2019-02-16T01:08:26.604Z,22.23
2019-02-16T01:10:55.416Z,20.77
2019-02-16T01:13:24.182Z,21.13
2019-02-16T01:15:52.703Z,20.50
2019-02-16T01:18:21.635Z,21.73
2019-02-16T01:20:50.234Z,20.23
2019-02-16T01:23:18.884Z,20.93
2019-02-16T01:25:47.447Z,21.77
2019-02-16T01:28:16.104Z,20.43
2019-02-16T01:30:46.548Z,20.03
2019-02-16T01:33:15.344Z,20.97
2019-02-16T01:35:46.424Z,21.00
2019-02-16T01:38:15.137Z,20.20
2019-02-16T01:40:43.754Z,18.33
2019-02-16T01:43:13.807Z,19.83
2019-02-16T01:45:42.481Z,18.77
2019-02-16T01:48:11.087Z,20.70
2019-02-16T01:50:41.461Z,19.57
2019-02-16T01:53:10.124Z,19.63
2019-02-16T01:55:39.045Z,20.93
2019-02-16T01:58:09.429Z,19.10
2019-02-16T02:00:38.087Z,18.63
2019-02-16T02:03:06.693Z,18.33
2019-02-16T02:05:35.522Z,17.83
2019-02-16T02:08:04.117Z,18.17
2019-02-16T02:10:32.866Z,17.80
2019-02-16T02:13:02.231Z,19.87
2019-02-16T02:15:31.518Z,18.10
2019-02-16T02:18:00.157Z,17.00
2019-02-16T02:20:29.501Z,16.40
2019-02-16T02:22:58.216Z,17.57
2019-02-16T02:25:30.621Z,15.97
2019-02-16T02:28:01.503Z,17.60
2019-02-16T02:30:30.229Z,17.67
2019-02-16T02:33:00.452Z,14.57
2019-02-16T02:35:29.171Z,17.43
2019-02-16T02:37:57.776Z,17.73
2019-02-16T02:40:26.321Z,16.50
2019-02-16T02:42:55.002Z,16.13
2019-02-16T02:45:23.595Z,16.33
2019-02-16T02:47:53.618Z,16.17
2019-02-16T02:50:22.278Z,15.07
2019-02-16T02:52:52.010Z,15.57
2019-02-16T02:55:20.886Z,15.70
2019-02-16T02:57:49.509Z,15.57
2019-02-16T03:00:18.190Z,16.33
2019-02-16T03:02:46.970Z,15.57
2019-02-16T03:05:15.642Z,16.10
2019-02-16T03:07:44.278Z,14.93
2019-02-16T03:10:12.933Z,14.50
2019-02-16T03:12:41.439Z,14.47
2019-02-16T03:15:12.851Z,15.63
2019-02-16T03:17:43.340Z,14.13
2019-02-16T03:20:11.942Z,15.00
2019-02-16T03:23:00.430Z,15.17
2019-02-16T03:25:29.145Z,14.87
2019-02-16T03:28:25.110Z,14.97
2019-02-16T03:31:13.466Z,14.83
2019-02-16T03:33:47.756Z,16.07
2019-02-16T03:36:37.636Z,15.43
2019-02-16T03:39:12.646Z,16.33
2019-02-16T03:41:41.313Z,16.07
2019-02-16T03:44:10.972Z,16.23
2019-02-16T03:46:41.698Z,16.70
2019-02-16T03:49:12.376Z,15.20
2019-02-16T03:51:42.669Z,16.43
2019-02-16T03:54:11.246Z,16.07
2019-02-16T03:56:43.143Z,17.03
2019-02-16T03:59:11.744Z,13.43
2019-02-16T04:01:40.661Z,13.30
2019-02-16T04:04:09.233Z,16.40
2019-02-16T04:06:37.806Z,15.47
2019-02-16T04:09:07.132Z,16.23
2019-02-16T04:11:35.664Z,17.73
2019-02-16T04:14:04.382Z,16.20
2019-02-16T04:16:32.983Z,17.67
2019-02-16T04:19:02.570Z,16.47
2019-02-16T04:21:31.298Z,16.13
2019-02-16T04:23:59.934Z,17.27
2019-02-16T04:26:29.712Z,18.80
2019-02-16T04:28:58.345Z,17.73
2019-02-16T04:31:26.872Z,18.20
2019-02-16T04:33:55.487Z,17.73
2019-02-16T04:36:24.226Z,17.47
2019-02-16T04:38:54.617Z,16.20
2019-02-16T04:41:23.344Z,17.80
2019-02-16T04:43:51.992Z,17.67
2019-02-16T04:46:21.728Z,19.10
2019-02-16T04:48:50.365Z,19.37
2019-02-16T04:51:18.927Z,18.07
2019-02-16T04:53:47.528Z,18.00
2019-02-16T04:56:16.234Z,19.13
2019-02-16T04:58:44.864Z,16.97
2019-02-16T05:01:14.589Z,17.93
2019-02-16T05:03:46.146Z,17.57
2019-02-16T05:06:14.795Z,18.10
2019-02-16T05:08:44.886Z,18.07
2019-02-16T05:11:14.249Z,19.37
2019-02-16T05:13:42.841Z,18.80
2019-02-16T05:16:11.748Z,19.20
2019-02-16T05:18:40.403Z,18.83
2019-02-16T05:21:10.608Z,19.63
2019-02-16T05:23:39.775Z,20.50
2019-02-16T05:26:11.610Z,19.23
2019-02-16T05:28:40.670Z,18.90
2019-02-16T05:31:09.304Z,18.70
2019-02-16T05:33:38.096Z,18.43
2019-02-16T05:36:07.780Z,19.53
2019-02-16T05:38:36.447Z,19.93
2019-02-16T05:41:04.993Z,18.30
2019-02-16T05:43:33.732Z,19.53
2019-02-16T05:46:02.345Z,19.20
2019-02-16T05:48:30.973Z,19.93
2019-02-16T05:50:59.957Z,19.03
2019-02-16T05:53:28.555Z,19.60
2019-02-16T05:55:57.273Z,20.03
2019-02-16T05:58:25.906Z,21.07
2019-02-16T06:00:54.569Z,20.33
2019-02-16T06:03:27.790Z,19.47
2019-02-16T06:05:56.504Z,20.47
2019-02-16T06:08:26.859Z,20.60
2019-02-16T06:10:55.448Z,19.23
2019-02-16T06:13:24.071Z,21.97
2019-02-16T06:15:52.628Z,21.57
2019-02-16T06:18:21.249Z,21.00
2019-02-16T06:20:50.548Z,21.27
2019-02-16T06:23:21.585Z,22.47
2019-02-16T06:25:53.931Z,20.37
2019-02-16T06:28:28.805Z,22.77
2019-02-16T06:30:59.072Z,20.93
2019-02-16T06:33:27.660Z,20.57
2019-02-16T06:35:59.017Z,22.17
2019-02-16T06:38:28.569Z,21.57
2019-02-16T06:40:58.924Z,22.53
2019-02-16T06:43:27.546Z,21.93
2019-02-16T06:45:56.227Z,22.73
2019-02-16T06:48:24.719Z,21.60
2019-02-16T06:50:53.258Z,23.40
2019-02-16T06:53:21.761Z,24.30
2019-02-16T06:55:51.941Z,25.53
2019-02-16T06:58:20.449Z,25.47
2019-02-16T07:00:49.051Z,23.60
2019-02-16T07:03:17.551Z,24.60
2019-02-16T07:05:46.421Z,25.27
2019-02-16T07:08:14.914Z,25.00
2019-02-16T07:10:45.137Z,26.57
2019-02-16T07:13:13.725Z,25.23
2019-02-16T07:15:44.236Z,27.33
2019-02-16T07:18:17.314Z,26.40
2019-02-16T07:20:45.875Z,27.37
2019-02-16T07:23:22.303Z,28.13
2019-02-16T07:25:46.250Z,28.67
2019-02-16T07:28:16.086Z,26.60
2019-02-16T07:30:44.726Z,28.00
2019-02-16T07:33:13.352Z,29.07
2019-02-16T07:35:42.089Z,28.50
2019-02-16T07:38:10.691Z,28.77
2019-02-16T07:40:40.350Z,29.17
2019-02-16T07:43:10.501Z,28.43
2019-02-16T07:45:40.885Z,30.40
2019-02-16T07:48:14.205Z,29.40
2019-02-16T07:50:44.726Z,29.90
2019-02-16T07:53:32.974Z,30.00
2019-02-16T07:56:11.199Z,30.97
2019-02-16T07:58:46.816Z,28.70
2019-02-16T08:01:17.199Z,29.67
2019-02-16T08:03:50.549Z,29.83
2019-02-16T08:06:27.206Z,30.20
2019-02-16T08:09:06.996Z,29.47
2019-02-16T08:11:43.256Z,29.83
2019-02-16T08:14:31.721Z,32.27
2019-02-16T08:17:01.931Z,30.70
2019-02-16T08:19:32.138Z,31.57
2019-02-16T08:22:19.592Z,30.73
2019-02-16T08:25:08.064Z,32.53
2019-02-16T08:27:54.699Z,32.60
2019-02-16T08:30:25.049Z,31.90
2019-02-16T08:32:58.304Z,36.17
2019-02-16T08:35:44.822Z,32.93
2019-02-16T08:38:17.708Z,31.67
2019-02-16T08:40:47.988Z,33.67
2019-02-16T08:43:18.322Z,32.50
2019-02-16T08:45:52.303Z,32.10
2019-02-16T08:48:35.221Z,32.77
2019-02-16T08:51:20.576Z,32.40
2019-02-16T08:54:03.131Z,33.87
2019-02-16T08:56:45.827Z,32.37
2019-02-16T08:59:31.749Z,34.70
2019-02-16T09:02:02.317Z,30.13
2019-02-16T09:04:35.515Z,33.40
2019-02-16T09:07:05.995Z,34.37
2019-02-16T09:09:36.557Z,33.27
2019-02-16T09:12:16.075Z,32.03
2019-02-16T09:15:05.118Z,33.30
2019-02-16T09:17:35.915Z,33.77
2019-02-16T09:20:13.758Z,33.13
2019-02-16T09:22:56.325Z,34.93
2019-02-16T09:25:39.041Z,34.37
2019-02-16T09:28:26.075Z,32.77
2019-02-16T09:31:06.716Z,37.47
2019-02-16T09:33:47.755Z,39.03
2019-02-16T09:36:30.155Z,35.27
2019-02-16T09:39:01.835Z,32.07
2019-02-16T09:41:32.227Z,32.20
2019-02-16T09:44:05.595Z,32.87
2019-02-16T09:46:38.650Z,31.00
2019-02-16T09:49:12.386Z,33.63
2019-02-16T09:51:45.603Z,31.37
2019-02-16T09:54:21.929Z,30.20
2019-02-16T09:56:57.333Z,33.03
2019-02-16T09:59:42.891Z,32.87
2019-02-16T10:02:29.575Z,33.20
2019-02-16T10:05:00.210Z,41.07
2019-02-16T10:07:47.211Z,38.17
2019-02-16T10:10:21.605Z,34.73
2019-02-16T10:13:10.834Z,38.80
2019-02-16T10:15:47.246Z,34.90
2019-02-16T10:18:34.105Z,39.00
2019-02-16T10:21:14.524Z,38.27
2019-02-16T10:24:01.308Z,36.50
2019-02-16T10:26:31.915Z,38.60
2019-02-16T10:29:05.397Z,36.50
2019-02-16T10:31:39.196Z,37.13
2019-02-16T10:34:15.472Z,36.57
2019-02-16T10:37:02.250Z,36.70
2019-02-16T10:39:35.422Z,39.93
2019-02-16T10:42:06.225Z,43.93
2019-02-16T10:44:46.823Z,43.37
2019-02-16T10:47:23.626Z,38.80
2019-02-16T10:50:02.378Z,42.77
2019-02-16T10:52:32.633Z,42.03
2019-02-16T10:55:12.072Z,41.43
2019-02-16T10:57:42.674Z,39.27
2019-02-16T11:00:13.049Z,39.77
2019-02-16T11:02:48.766Z,44.73
2019-02-16T11:05:20.660Z,41.40
2019-02-16T11:07:54.417Z,39.70
2019-02-16T11:10:24.715Z,35.90
2019-02-16T11:12:57.988Z,35.20
2019-02-16T11:15:31.004Z,36.77
2019-02-16T11:18:07.098Z,37.50
2019-02-16T11:20:43.131Z,39.03
2019-02-16T11:23:22.360Z,33.77
2019-02-16T11:25:52.547Z,34.03
2019-02-16T11:28:41.197Z,36.77
2019-02-16T11:31:14.519Z,36.07
2019-02-16T11:33:59.822Z,33.83
2019-02-16T11:36:42.717Z,33.03
2019-02-16T11:39:13.169Z,32.00
2019-02-16T11:41:43.561Z,30.27
2019-02-16T11:44:13.769Z,29.83
2019-02-16T11:46:53.193Z,27.93
2019-02-16T11:49:23.639Z,28.13
2019-02-16T11:51:53.907Z,27.33
2019-02-16T11:54:33.430Z,26.83
2019-02-16T11:57:14.311Z,26.80
2019-02-16T11:59:50.102Z,24.27
2019-02-16T12:02:23.337Z,22.53
2019-02-16T12:04:53.793Z,16.37
2019-02-16T12:07:33.228Z,17.23
2019-02-16T12:10:09.629Z,16.10
2019-02-16T12:12:45.713Z,12.20
2019-02-16T12:15:37.554Z,11.60
2019-02-16T12:18:21.969Z,10.30
2019-02-16T12:20:57.333Z,9.83
2019-02-16T12:26:44.215Z,10.90
2019-02-16T12:29:32.015Z,9.37
2019-02-16T12:32:18.574Z,10.33
2019-02-16T12:34:51.695Z,10.03
2019-02-16T12:37:29.454Z,9.73
2019-02-16T12:40:03.335Z,9.90
2019-02-16T12:42:50.222Z,9.67
2019-02-16T12:45:36.615Z,10.13
2019-02-16T12:48:12.713Z,10.47
2019-02-16T12:50:45.736Z,9.97
2019-02-16T12:53:16.054Z,10.53
2019-02-16T12:55:58.374Z,10.13
2019-02-16T12:58:32.217Z,11.27
2019-02-16T13:01:05.534Z,12.10
2019-02-16T13:03:47.495Z,13.00
2019-02-16T13:06:20.727Z,11.60
2019-02-16T13:08:56.697Z,12.57
2019-02-16T13:11:29.669Z,10.97
2019-02-16T13:14:06.007Z,11.40
2019-02-16T13:16:39.172Z,13.27
2019-02-16T13:19:13.222Z,13.30
2019-02-16T13:21:47.200Z,12.70
2019-02-16T13:24:29.559Z,13.90
2019-02-16T13:27:19.288Z,12.20
2019-02-16T13:29:58.490Z,12.40
2019-02-16T13:32:31.778Z,11.83
2019-02-16T13:35:20.358Z,11.87
2019-02-16T13:37:56.598Z,11.43
2019-02-16T13:40:36.134Z,12.80
2019-02-16T13:43:09.433Z,11.67
2019-02-16T13:45:48.757Z,13.27
2019-02-16T13:48:31.150Z,11.97
2019-02-16T13:51:01.891Z,13.03
2019-02-16T13:53:35.362Z,13.43
2019-02-16T13:56:14.658Z,12.90
2019-02-16T13:59:04.164Z,12.30
2019-02-16T14:01:34.604Z,12.97
2019-02-16T14:04:17.324Z,14.47
2019-02-16T14:06:47.811Z,14.10
2019-02-16T14:09:19.972Z,15.57
2019-02-16T14:11:52.554Z,15.13
2019-02-16T14:14:33.727Z,15.80
2019-02-16T14:17:15.683Z,18.20
2019-02-16T14:19:44.484Z,15.60
2019-02-16T14:22:13.245Z,15.43
2019-02-16T14:24:46.563Z,14.07
2019-02-16T14:27:15.403Z,14.97
2019-02-16T14:29:44.123Z,13.43
2019-02-16T14:32:12.883Z,14.70
2019-02-16T14:34:44.603Z,14.20
2019-02-16T14:37:22.484Z,13.60
2019-02-16T14:39:52.643Z,14.37
2019-02-16T14:42:26.883Z,15.00
2019-02-16T14:44:55.645Z,14.73
2019-02-16T14:47:29.404Z,14.57
2019-02-16T14:49:58.203Z,14.07
2019-02-16T14:52:27.506Z,15.90
2019-02-16T14:54:56.440Z,14.50
2019-02-16T14:57:25.400Z,15.53
2019-02-16T14:59:54.320Z,15.30
2019-02-16T15:02:25.568Z,14.97
2019-02-16T15:04:55.850Z,15.90
2019-02-16T15:07:25.124Z,16.47
2019-02-16T15:09:54.183Z,15.00
2019-02-16T15:12:23.764Z,15.43
2019-02-16T15:14:54.547Z,17.07
2019-02-16T15:17:23.233Z,16.90
2019-02-16T15:19:52.058Z,14.50
2019-02-16T15:22:21.106Z,15.23
2019-02-16T15:24:50.190Z,14.40
2019-02-16T15:27:24.325Z,14.03
2019-02-16T15:29:53.135Z,13.67
2019-02-16T15:32:21.843Z,14.47
2019-02-16T15:34:50.535Z,12.80
2019-02-16T15:37:19.213Z,13.40
2019-02-16T15:39:47.893Z,13.33
2019-02-16T15:42:16.482Z,13.07
2019-02-16T15:44:45.265Z,12.70
2019-02-16T15:47:14.053Z,12.83
2019-02-16T15:49:42.555Z,13.43
2019-02-16T15:52:11.302Z,12.27
2019-02-16T15:54:39.893Z,12.20
2019-02-16T15:57:08.493Z,14.37
2019-02-16T15:59:37.099Z,15.10
2019-02-16T16:02:08.355Z,15.13
2019-02-16T16:04:40.306Z,15.07
2019-02-16T16:07:12.637Z,15.93
2019-02-16T16:09:43.251Z,15.57
2019-02-16T16:12:22.947Z,14.60
2019-02-16T16:14:53.534Z,14.90
2019-02-16T16:17:29.696Z,14.67
2019-02-16T16:20:07.109Z,16.30
2019-02-16T16:22:43.428Z,16.93
2019-02-16T16:25:15.271Z,17.63
2019-02-16T16:27:45.827Z,17.40
2019-02-16T16:30:22.662Z,18.00
2019-02-16T16:33:05.358Z,17.83
2019-02-16T16:35:44.839Z,18.87
2019-02-16T16:38:15.087Z,20.47
2019-02-16T16:40:51.501Z,24.40
2019-02-16T16:43:28.163Z,24.37
2019-02-16T16:46:15.059Z,27.13
2019-02-16T16:49:02.052Z,27.83
2019-02-16T16:51:32.519Z,26.23
2019-02-16T16:54:12.183Z,24.10
2019-02-16T16:56:42.736Z,23.37
2019-02-16T16:59:13.169Z,24.97
2019-02-16T17:01:43.684Z,25.73
2019-02-16T17:04:25.800Z,25.57
2019-02-16T17:06:56.353Z,28.90
2019-02-16T17:09:26.780Z,28.13
2019-02-16T17:12:13.878Z,30.87
2019-02-16T17:14:44.411Z,28.90
2019-02-16T17:17:29.707Z,28.73
2019-02-16T17:20:15.293Z,27.67
2019-02-16T17:22:51.544Z,28.90
2019-02-16T17:25:32.855Z,30.33
2019-02-16T17:28:03.714Z,29.30
2019-02-16T17:30:34.946Z,30.87
2019-02-16T17:33:08.988Z,28.37
2019-02-16T17:35:42.587Z,31.40
2019-02-16T17:38:25.269Z,29.87
2019-02-16T17:41:14.487Z,30.93
2019-02-16T17:43:50.331Z,31.77
2019-02-16T17:46:30.090Z,29.20
2019-02-16T17:49:16.851Z,30.83
2019-02-16T17:52:03.726Z,30.57
2019-02-16T17:54:34.211Z,32.70
2019-02-16T17:57:20.934Z,76.13
2019-02-16T17:59:51.508Z,44.20
2019-02-16T18:02:26.417Z,40.20
2019-02-16T18:04:57.258Z,37.47
2019-02-16T18:07:46.603Z,36.93
2019-02-16T18:13:03.676Z,32.23
2019-02-16T18:15:51.150Z,26.47
2019-02-16T18:18:27.595Z,42.47
2019-02-16T18:21:15.315Z,34.80
2019-02-16T18:24:02.618Z,34.10
2019-02-16T18:26:42.827Z,27.17
2019-02-16T18:29:22.120Z,26.13
2019-02-16T18:31:55.758Z,25.13
2019-02-16T18:34:35.577Z,25.20
2019-02-16T18:37:12.154Z,25.53
2019-02-16T18:40:01.151Z,28.17
2019-02-16T18:42:37.838Z,27.97
2019-02-16T18:45:12.901Z,27.40
2019-02-16T18:48:03.643Z,23.97
2019-02-16T18:50:49.275Z,24.67
2019-02-16T22:08:31.550Z,34.73
2019-02-16T22:11:07.495Z,30.67
2019-02-16T22:13:36.296Z,28.47
2019-02-16T22:16:05.196Z,27.13
2019-02-16T22:18:33.948Z,32.03
2019-02-16T22:21:02.847Z,28.20
2019-02-16T22:23:31.644Z,31.87
2019-02-16T22:26:00.636Z,27.80
2019-02-16T22:28:31.304Z,30.27
2019-02-16T22:31:00.149Z,32.03
2019-02-16T22:33:28.947Z,34.27
2019-02-16T22:35:57.771Z,29.37
2019-02-16T22:38:29.684Z,34.53
2019-02-16T22:40:58.732Z,28.60
2019-02-16T22:43:27.613Z,32.57
2019-02-16T22:45:56.239Z,31.97
2019-02-16T22:48:24.935Z,26.60
2019-02-16T22:50:53.939Z,25.00
2019-02-16T22:53:22.832Z,28.23
2019-02-16T22:55:51.579Z,24.13
2019-02-16T22:58:28.561Z,28.50
2019-02-16T23:00:51.330Z,28.70
2019-02-16T23:03:20.007Z,29.70
2019-02-16T23:05:48.877Z,30.90
2019-02-16T23:08:17.789Z,30.23
2019-02-16T23:10:48.180Z,30.73
2019-02-16T23:13:17.030Z,29.00
2019-02-16T23:15:45.823Z,30.93
2019-02-16T23:18:14.652Z,26.70
2019-02-16T23:20:43.275Z,27.60
2019-02-16T23:23:12.223Z,26.43
2019-02-16T23:25:40.959Z,26.40
2019-02-16T23:28:09.797Z,29.83
2019-02-16T23:30:38.730Z,25.40
2019-02-16T23:33:07.490Z,26.40
2019-02-16T23:35:36.211Z,25.53
2019-02-16T23:38:23.531Z,23.87
2019-02-16T23:40:52.194Z,28.70
2019-02-16T23:43:21.108Z,25.93
2019-02-16T23:45:50.188Z,29.33
2019-02-16T23:48:19.032Z,23.20
2019-02-16T23:50:47.541Z,26.17
2019-02-16T23:53:16.330Z,33.73
2019-02-16T23:55:45.223Z,27.23
2019-02-16T23:58:13.900Z,25.67
